Big Sandy, Tennessee
Current Conditions -  °F | °C
As of 12:15 PM on Sunday 25 Jan 2015 (Local Time) from KPHT Reporting Station
Overcast Overcast  
Wind Chill: 37°   Ceiling: 4200
Heat Index: 43°   Visibility: 9mi
Dew Point: 39°   Wind: 12mph
Humidity: 87%   Direction: 210°SSW
Pressure: 29.64"   Gusts: NA
Location:  36.23°N, 88.09°W
Report Text: KPHT 251815Z AUTO 21010KT 9SM FEW027 OVC042 06/04 A2964 RMK
Loading
Personal Weather Stations






























Interactive Weather Map New forecast layout! Learn more

10-Day Weather Forecast

Advertisements
Track Severe Weather on mobile